Weather at Korea Maritime & Ocean University Heliport

Public forecast

Using degrees Celsius for public forecast. Weather courtesy of forecast.io.

Closest aviation weather report (METAR) to Korea Maritime & Ocean University Heliport

Closest report is Gimhae International Airport, 9.7 nm (17.9 km) NW. Retrieved 2021/06/19 23:00 UTC (45 minutes ago):

RKPK 192300Z 36001KT CAVOK 22/17 Q1003

Closest aviation forecast (TAF) to Korea Maritime & Ocean University Heliport

Closest forecast is Gimhae International Airport, 9.7 nm (17.9 km) NW. Retrieved 2021/06/19 18:00 UTC (6 hours ago):

TAF RKPK 191700Z 1918/2024 33006KT 9999 SCT030 SCT200 TN19/1921Z TX29/2006Z BECMG 2001/2002 18008KT